<?xml version="1.0" encoding="UTF-8" standalone="no" ?>
<gpx xmlns="http://www.topografix.com/GPX/1/1" xmlns:xsi="http://www.w3.org/2001/XMLSchema-instance" xsi:schemaLocation="http://www.topografix.com/GPX/1/1 http://www.topografix.com/GPX/1/1/gpx.xsd" version="1.1" creator="VisuGPX - https://www.visugpx.com">
  <metadata>
    <name>Damvix_Rainettes_12.4km</name>
    <desc><![CDATA[OR-7873051--Damvix:Damvix_12.4km gnerando]]></desc>
  </metadata>
  <trk>
    <name><![CDATA[OR-7850479--Damvix:Damvix_12.4km]]></name>
    <extensions>
      <line xmlns="http://www.topografix.com/GPX/gpx_style/0/2">
        <color>0000FF</color>
        <width>4</width>
      </line>
    </extensions>
    <trkseg>
      <trkpt lat="46.31377" lon="-0.73376">
        <ele>5</ele>
        <time>2017-08-27T16:34:33Z</time>
      </trkpt>
      <trkpt lat="46.31314" lon="-0.73346">
        <ele>5</ele>
        <time>2017-08-27T16:36:33Z</time>
      </trkpt>
      <trkpt lat="46.31211" lon="-0.73527">
        <ele>4</ele>
        <time>2017-08-27T16:38:33Z</time>
      </trkpt>
      <trkpt lat="46.31107" lon="-0.73763">
        <ele>4</ele>
        <time>2017-08-27T16:40:33Z</time>
      </trkpt>
      <trkpt lat="46.30873" lon="-0.73964">
        <ele>3</ele>
        <time>2017-08-27T16:42:33Z</time>
      </trkpt>
      <trkpt lat="46.30802" lon="-0.73973">
        <ele>3</ele>
        <time>2017-08-27T16:44:33Z</time>
      </trkpt>
      <trkpt lat="46.30733" lon="-0.74067">
        <ele>3</ele>
        <time>2017-08-27T16:46:33Z</time>
      </trkpt>
      <trkpt lat="46.30976" lon="-0.74866">
        <ele>3</ele>
        <time>2017-08-27T16:48:33Z</time>
      </trkpt>
      <trkpt lat="46.30926" lon="-0.75007">
        <ele>3</ele>
        <time>2017-08-27T16:50:33Z</time>
      </trkpt>
      <trkpt lat="46.30885" lon="-0.74964">
        <ele>3</ele>
        <time>2017-08-27T16:52:33Z</time>
      </trkpt>
      <trkpt lat="46.3071" lon="-0.75162">
        <ele>4</ele>
        <time>2017-08-27T16:54:33Z</time>
      </trkpt>
      <trkpt lat="46.30618" lon="-0.75368">
        <ele>4</ele>
        <time>2017-08-27T16:56:33Z</time>
      </trkpt>
      <trkpt lat="46.30674" lon="-0.75428">
        <ele>2</ele>
        <time>2017-08-27T16:58:33Z</time>
      </trkpt>
      <trkpt lat="46.30449" lon="-0.75792">
        <ele>4</ele>
        <time>2017-08-27T17:00:33Z</time>
      </trkpt>
      <trkpt lat="46.31409" lon="-0.77179">
        <ele>4</ele>
        <time>2017-08-27T17:02:33Z</time>
      </trkpt>
      <trkpt lat="46.31746" lon="-0.77676">
        <ele>3</ele>
        <time>2017-08-27T17:04:33Z</time>
      </trkpt>
      <trkpt lat="46.31832" lon="-0.77503">
        <ele>4</ele>
        <time>2017-08-27T17:06:33Z</time>
      </trkpt>
      <trkpt lat="46.31829" lon="-0.77406">
        <ele>4</ele>
        <time>2017-08-27T17:08:33Z</time>
      </trkpt>
      <trkpt lat="46.31854" lon="-0.77402">
        <ele>4</ele>
        <time>2017-08-27T17:10:33Z</time>
      </trkpt>
      <trkpt lat="46.31878" lon="-0.77535">
        <ele>4</ele>
        <time>2017-08-27T17:12:33Z</time>
      </trkpt>
      <trkpt lat="46.31912" lon="-0.77576">
        <ele>3</ele>
        <time>2017-08-27T17:14:33Z</time>
      </trkpt>
      <trkpt lat="46.31977" lon="-0.77505">
        <ele>5</ele>
        <time>2017-08-27T17:16:33Z</time>
      </trkpt>
      <trkpt lat="46.32026" lon="-0.77438">
        <ele>4</ele>
        <time>2017-08-27T17:18:33Z</time>
      </trkpt>
      <trkpt lat="46.32295" lon="-0.7625">
        <ele>3</ele>
        <time>2017-08-27T17:20:33Z</time>
      </trkpt>
      <trkpt lat="46.32454" lon="-0.76029">
        <ele>3</ele>
        <time>2017-08-27T17:22:33Z</time>
      </trkpt>
      <trkpt lat="46.32466" lon="-0.75973">
        <ele>3</ele>
        <time>2017-08-27T17:24:33Z</time>
      </trkpt>
      <trkpt lat="46.32527" lon="-0.75857">
        <ele>3</ele>
        <time>2017-08-27T17:26:33Z</time>
      </trkpt>
      <trkpt lat="46.32798" lon="-0.7567">
        <ele>4</ele>
        <time>2017-08-27T17:28:33Z</time>
      </trkpt>
      <trkpt lat="46.32896" lon="-0.75649">
        <ele>6</ele>
        <time>2017-08-27T17:30:33Z</time>
      </trkpt>
      <trkpt lat="46.33485" lon="-0.75149">
        <ele>3</ele>
        <time>2017-08-27T17:32:33Z</time>
      </trkpt>
      <trkpt lat="46.33638" lon="-0.75014">
        <ele>4</ele>
        <time>2017-08-27T17:34:33Z</time>
      </trkpt>
      <trkpt lat="46.33802" lon="-0.74835">
        <ele>4</ele>
        <time>2017-08-27T17:36:33Z</time>
      </trkpt>
      <trkpt lat="46.33953" lon="-0.74314">
        <ele>3</ele>
        <time>2017-08-27T17:38:33Z</time>
      </trkpt>
      <trkpt lat="46.33497" lon="-0.74323">
        <ele>2</ele>
        <time>2017-08-27T17:40:33Z</time>
      </trkpt>
      <trkpt lat="46.33324" lon="-0.73278">
        <ele>5</ele>
        <time>2017-08-27T17:42:33Z</time>
      </trkpt>
      <trkpt lat="46.3315" lon="-0.73458">
        <ele>3</ele>
        <time>2017-08-27T17:44:33Z</time>
      </trkpt>
      <trkpt lat="46.32827" lon="-0.73449">
        <ele>5</ele>
        <time>2017-08-27T17:46:33Z</time>
      </trkpt>
      <trkpt lat="46.32696" lon="-0.73297">
        <ele>5</ele>
        <time>2017-08-27T17:48:33Z</time>
      </trkpt>
      <trkpt lat="46.32565" lon="-0.73331">
        <ele>6</ele>
        <time>2017-08-27T17:50:33Z</time>
      </trkpt>
      <trkpt lat="46.32245" lon="-0.73346">
        <ele>7</ele>
        <time>2017-08-27T17:52:33Z</time>
      </trkpt>
      <trkpt lat="46.32079" lon="-0.73233">
        <ele>8</ele>
        <time>2017-08-27T17:54:33Z</time>
      </trkpt>
      <trkpt lat="46.32005" lon="-0.73248">
        <ele>7</ele>
        <time>2017-08-27T17:56:33Z</time>
      </trkpt>
      <trkpt lat="46.31897" lon="-0.73301">
        <ele>6</ele>
        <time>2017-08-27T17:58:33Z</time>
      </trkpt>
      <trkpt lat="46.31741" lon="-0.73436">
        <ele>6</ele>
        <time>2017-08-27T18:00:33Z</time>
      </trkpt>
      <trkpt lat="46.31664" lon="-0.7346">
        <ele>7</ele>
        <time>2017-08-27T18:02:33Z</time>
      </trkpt>
      <trkpt lat="46.3162" lon="-0.7337">
        <ele>6</ele>
        <time>2017-08-27T18:04:33Z</time>
      </trkpt>
      <trkpt lat="46.31492" lon="-0.73342">
        <ele>7</ele>
        <time>2017-08-27T18:06:33Z</time>
      </trkpt>
      <trkpt lat="46.31371" lon="-0.73378">
        <ele>5</ele>
        <time>2017-08-27T18:08:33Z</time>
      </trkpt>
    </trkseg>
  </trk>
</gpx>